Time;durP1;ratioP1;P1;durP2;ratioP2;P2;SDS_P1;SDS_P2;PMS_P1;PMS_P2;Temp;Humidity;BMP_temperature;BMP_pressure;BME280_temperature;BME280_humidity;BME280_pressure;Samples;Min_cycle;Max_cycle;Signal;HPM_P1;HPM_P2
2021/12/27 00:02:08;;;;;;;14.27;12.67;;;;;;;;;;5052716;28;21222;-71
2021/12/27 00:04:35;;;;;;;15.53;13.17;;;;;;;;;;5053195;28;20214;-71
2021/12/27 00:07:01;;;;;;;16.20;13.43;;;;;;;;;;5051377;28;20213;-71
2021/12/27 00:09:28;;;;;;;16.30;13.20;;;;;;;;;;5050881;28;20694;-70
2021/12/27 00:11:55;;;;;;;15.30;12.53;;;;;;;;;;5053715;28;20207;-71
2021/12/27 00:14:22;;;;;;;17.03;12.87;;;;;;;;;;5051597;28;20295;-71
2021/12/27 00:16:48;;;;;;;16.53;13.00;;;;;;;;;;5051605;28;20229;-71
2021/12/27 00:19:15;;;;;;;15.10;12.23;;;;;;;;;;5053390;28;20214;-71
2021/12/27 00:21:41;;;;;;;15.80;13.17;;;;;;;;;;5051104;28;20687;-70
2021/12/27 00:24:08;;;;;;;15.37;11.90;;;;;;;;;;5050704;28;20610;-71
2021/12/27 00:26:34;;;;;;;16.37;13.40;;;;;;;;;;5052694;28;20227;-70
2021/12/27 00:29:02;;;;;;;16.07;13.37;;;;;;;;;;5049920;28;20731;-70
2021/12/27 00:31:29;;;;;;;16.20;13.67;;;;;;;;;;5052405;28;20233;-70
2021/12/27 00:33:55;;;;;;;16.53;12.87;;;;;;;;;;5052796;28;20643;-70
2021/12/27 00:36:21;;;;;;;16.30;12.77;;;;;;;;;;5052664;28;20226;-70
2021/12/27 00:38:48;;;;;;;18.70;13.23;;;;;;;;;;5052070;28;20239;-70
2021/12/27 00:41:14;;;;;;;17.10;14.03;;;;;;;;;;5051134;28;20230;-71
2021/12/27 00:43:41;;;;;;;17.20;13.27;;;;;;;;;;5050236;28;20217;-70
2021/12/27 00:46:08;;;;;;;18.50;13.70;;;;;;;;;;5052231;28;20256;-70
2021/12/27 00:48:35;;;;;;;16.47;13.50;;;;;;;;;;5052792;28;20268;-70
2021/12/27 00:51:02;;;;;;;17.33;13.50;;;;;;;;;;5051512;28;20263;-70
2021/12/27 00:53:29;;;;;;;17.10;13.80;;;;;;;;;;5050211;28;20637;-70
2021/12/27 00:55:55;;;;;;;18.43;13.67;;;;;;;;;;5051625;28;20255;-70
2021/12/27 00:58:21;;;;;;;18.60;15.13;;;;;;;;;;5055855;28;20251;-70
2021/12/27 01:00:49;;;;;;;17.37;14.27;;;;;;;;;;5055432;28;20222;-70
2021/12/27 01:03:17;;;;;;;17.97;14.47;;;;;;;;;;5055363;28;20569;-70
2021/12/27 01:05:43;;;;;;;17.83;14.10;;;;;;;;;;5055672;28;20252;-70
2021/12/27 01:08:10;;;;;;;17.37;14.47;;;;;;;;;;5055363;28;20218;-70
2021/12/27 01:13:25;;;;;;;18.07;14.47;;;;;;;;;;5056965;28;20278;-70
2021/12/27 01:16:10;;;;;;;20.57;15.40;;;;;;;;;;5055169;28;20226;-70
2021/12/27 01:18:41;;;;;;;19.77;15.10;;;;;;;;;;5054998;28;20237;-70
2021/12/27 01:21:07;;;;;;;20.33;15.37;;;;;;;;;;5056137;28;20633;-70
2021/12/27 01:23:34;;;;;;;19.90;15.23;;;;;;;;;;5053603;28;20238;-71
2021/12/27 01:26:01;;;;;;;22.47;16.40;;;;;;;;;;5054664;28;20230;-70
2021/12/27 01:28:28;;;;;;;20.90;14.97;;;;;;;;;;5056922;28;20355;-70
2021/12/27 01:30:54;;;;;;;21.03;16.67;;;;;;;;;;5054468;28;20210;-70
2021/12/27 01:33:23;;;;;;;21.90;16.00;;;;;;;;;;5053315;28;20709;-70
2021/12/27 01:35:51;;;;;;;19.07;15.37;;;;;;;;;;5056849;28;20680;-70
2021/12/27 01:38:18;;;;;;;20.27;15.73;;;;;;;;;;5054667;28;20222;-70
2021/12/27 01:40:47;;;;;;;20.17;15.27;;;;;;;;;;5054866;28;20233;-70
2021/12/27 01:43:19;;;;;;;22.67;15.27;;;;;;;;;;5054147;28;20279;-70
2021/12/27 01:45:48;;;;;;;18.73;14.90;;;;;;;;;;5055073;28;20210;-70
2021/12/27 01:48:20;;;;;;;21.37;15.97;;;;;;;;;;5053001;28;20845;-70
2021/12/27 01:50:48;;;;;;;21.03;15.83;;;;;;;;;;5055453;28;20272;-70
2021/12/27 01:53:18;;;;;;;19.40;14.77;;;;;;;;;;5054889;28;20217;-70
2021/12/27 01:55:45;;;;;;;19.63;15.70;;;;;;;;;;5052921;28;20249;-70
2021/12/27 01:58:12;;;;;;;21.27;15.43;;;;;;;;;;5055341;28;20214;-70
2021/12/27 02:00:42;;;;;;;21.40;16.83;;;;;;;;;;5054990;28;20207;-70
2021/12/27 02:03:08;;;;;;;23.03;15.93;;;;;;;;;;5055156;28;20272;-70
2021/12/27 02:05:36;;;;;;;20.17;15.23;;;;;;;;;;5053706;28;20218;-70
2021/12/27 02:08:03;;;;;;;22.40;16.30;;;;;;;;;;5055607;28;20317;-70
2021/12/27 02:10:32;;;;;;;21.93;16.90;;;;;;;;;;5053796;28;20623;-70
2021/12/27 02:12:59;;;;;;;22.57;16.10;;;;;;;;;;5052867;28;20636;-70
2021/12/27 02:15:26;;;;;;;22.47;16.70;;;;;;;;;;5055143;28;20214;-70
2021/12/27 02:17:52;;;;;;;22.57;17.50;;;;;;;;;;5053760;28;20311;-70
2021/12/27 02:20:22;;;;;;;23.50;16.70;;;;;;;;;;5053847;28;20241;-70
2021/12/27 02:22:51;;;;;;;22.87;17.80;;;;;;;;;;5055299;28;20556;-70
2021/12/27 02:25:17;;;;;;;22.17;17.17;;;;;;;;;;5052237;28;20233;-70
2021/12/27 02:27:45;;;;;;;22.33;17.07;;;;;;;;;;5053200;28;20210;-70
2021/12/27 02:30:17;;;;;;;24.63;17.30;;;;;;;;;;5054684;28;20220;-70
2021/12/27 02:32:48;;;;;;;26.53;18.83;;;;;;;;;;5054025;28;20318;-70
2021/12/27 02:35:17;;;;;;;23.80;17.97;;;;;;;;;;5052006;28;20214;-70
2021/12/27 02:37:45;;;;;;;25.17;18.63;;;;;;;;;;5055055;28;20718;-71
2021/12/27 02:40:13;;;;;;;26.80;19.00;;;;;;;;;;5054873;28;20926;-70
2021/12/27 02:42:59;;;;;;;23.40;18.07;;;;;;;;;;5052849;28;20210;-70
2021/12/27 02:45:27;;;;;;;25.30;19.27;;;;;;;;;;5053710;28;20210;-70
2021/12/27 02:47:54;;;;;;;26.80;18.77;;;;;;;;;;5053715;28;20722;-70
2021/12/27 02:50:22;;;;;;;22.03;17.03;;;;;;;;;;5052554;28;20238;-70
2021/12/27 02:52:49;;;;;;;22.77;17.77;;;;;;;;;;5054432;28;20210;-70
2021/12/27 02:55:17;;;;;;;24.77;18.77;;;;;;;;;;5053717;28;20281;-70
2021/12/27 02:57:43;;;;;;;27.13;18.90;;;;;;;;;;5052178;28;20766;-70
2021/12/27 03:00:16;;;;;;;28.50;18.83;;;;;;;;;;5054153;28;20302;-71
2021/12/27 03:02:44;;;;;;;24.03;19.73;;;;;;;;;;5054623;28;20222;-70
2021/12/27 03:05:12;;;;;;;26.10;17.93;;;;;;;;;;5053118;28;20696;-70
2021/12/27 03:07:39;;;;;;;27.87;19.70;;;;;;;;;;5053151;28;20206;-70
2021/12/27 03:10:08;;;;;;;24.87;18.50;;;;;;;;;;5054540;28;20253;-70
2021/12/27 03:12:35;;;;;;;24.53;18.17;;;;;;;;;;5053831;28;20217;-70
2021/12/27 03:15:01;;;;;;;26.67;18.73;;;;;;;;;;5052156;28;20292;-70
2021/12/27 03:17:27;;;;;;;28.00;18.60;;;;;;;;;;5052465;28;20227;-71
2021/12/27 03:19:54;;;;;;;25.97;19.00;;;;;;;;;;5053445;28;20221;-69
2021/12/27 03:22:20;;;;;;;29.50;20.40;;;;;;;;;;5052624;28;20210;-70
2021/12/27 03:24:46;;;;;;;28.23;18.97;;;;;;;;;;5053556;28;20230;-70
2021/12/27 03:27:15;;;;;;;29.80;18.50;;;;;;;;;;5053542;28;20741;-71
2021/12/27 03:29:41;;;;;;;28.40;19.53;;;;;;;;;;5051716;28;20241;-71
2021/12/27 03:32:08;;;;;;;26.93;19.47;;;;;;;;;;5054102;28;20312;-71
2021/12/27 03:34:41;;;;;;;28.13;19.80;;;;;;;;;;5053338;28;20254;-71
2021/12/27 03:37:09;;;;;;;25.90;18.33;;;;;;;;;;5051842;28;20689;-71
2021/12/27 03:39:35;;;;;;;28.20;18.97;;;;;;;;;;5054950;28;20210;-70
2021/12/27 03:42:02;;;;;;;31.93;20.63;;;;;;;;;;5053474;28;20641;-71
2021/12/27 03:44:29;;;;;;;31.23;19.60;;;;;;;;;;5051347;28;20890;-70
2021/12/27 03:46:56;;;;;;;26.47;19.43;;;;;;;;;;5052488;28;20226;-71
2021/12/27 03:49:22;;;;;;;33.30;21.37;;;;;;;;;;5052858;28;20310;-70
2021/12/27 03:51:49;;;;;;;32.07;20.30;;;;;;;;;;5051254;28;20263;-71
2021/12/27 03:54:15;;;;;;;35.53;20.30;;;;;;;;;;5052021;28;20217;-70
2021/12/27 03:56:41;;;;;;;30.70;19.00;;;;;;;;;;5053504;28;20316;-70
2021/12/27 03:59:21;;;;;;;35.93;21.83;;;;;;;;;;5051435;28;20213;-70
2021/12/27 04:01:50;;;;;;;37.80;22.63;;;;;;;;;;5052216;28;20319;-71
2021/12/27 04:04:17;;;;;;;38.03;21.53;;;;;;;;;;5053542;28;20262;-71
2021/12/27 04:06:43;;;;;;;35.10;21.43;;;;;;;;;;5051377;28;20210;-71
2021/12/27 04:09:10;;;;;;;40.87;23.47;;;;;;;;;;5052343;28;20273;-70
2021/12/27 04:11:36;;;;;;;35.47;21.73;;;;;;;;;;5053438;28;20603;-71
2021/12/27 04:14:03;;;;;;;39.83;22.93;;;;;;;;;;5051957;28;20214;-71
2021/12/27 04:16:29;;;;;;;38.43;21.17;;;;;;;;;;5051864;28;20253;-71
2021/12/27 04:18:57;;;;;;;50.83;23.57;;;;;;;;;;5052106;28;20207;-71
2021/12/27 04:21:23;;;;;;;46.50;23.87;;;;;;;;;;5050610;28;20253;-71
2021/12/27 04:23:50;;;;;;;38.57;22.97;;;;;;;;;;5051365;28;20579;-71
2021/12/27 04:26:16;;;;;;;41.53;24.17;;;;;;;;;;5050978;28;20272;-71
2021/12/27 04:28:43;;;;;;;47.20;25.67;;;;;;;;;;5051572;28;20221;-71
2021/12/27 04:31:09;;;;;;;47.63;23.43;;;;;;;;;;5050475;28;20218;-71
2021/12/27 04:33:36;;;;;;;40.10;23.93;;;;;;;;;;5054172;28;20727;-71
2021/12/27 04:36:04;;;;;;;42.87;23.47;;;;;;;;;;5051746;28;20284;-71
2021/12/27 04:38:30;;;;;;;42.93;24.60;;;;;;;;;;5051925;28;20760;-71
2021/12/27 04:40:57;;;;;;;47.50;23.80;;;;;;;;;;5051299;28;20766;-71
2021/12/27 04:43:24;;;;;;;50.50;25.43;;;;;;;;;;5052031;28;20210;-71
2021/12/27 04:45:52;;;;;;;46.40;25.10;;;;;;;;;;5052787;28;20210;-71
2021/12/27 04:48:20;;;;;;;42.57;23.90;;;;;;;;;;5053039;28;20684;-71
2021/12/27 04:50:46;;;;;;;44.90;23.67;;;;;;;;;;5051080;28;20731;-71
2021/12/27 04:53:14;;;;;;;58.60;26.27;;;;;;;;;;5048951;28;20218;-71
2021/12/27 04:55:41;;;;;;;48.07;27.13;;;;;;;;;;5050920;28;20272;-71
2021/12/27 04:58:09;;;;;;;49.50;25.50;;;;;;;;;;5050572;28;20783;-71
2021/12/27 05:00:36;;;;;;;52.90;26.33;;;;;;;;;;5049868;28;20735;-71
2021/12/27 05:03:03;;;;;;;51.60;25.90;;;;;;;;;;5052281;28;20233;-71
2021/12/27 05:05:30;;;;;;;49.80;25.33;;;;;;;;;;5052735;28;20557;-71
2021/12/27 05:07:57;;;;;;;53.07;27.57;;;;;;;;;;5050052;28;20205;-71
2021/12/27 05:10:25;;;;;;;52.67;24.93;;;;;;;;;;5050310;28;20287;-71
2021/12/27 05:12:51;;;;;;;60.80;27.50;;;;;;;;;;5054142;28;20203;-70
2021/12/27 05:15:18;;;;;;;54.93;28.10;;;;;;;;;;5050209;28;20210;-71
2021/12/27 05:17:44;;;;;;;58.00;27.47;;;;;;;;;;5052297;28;20640;-71
2021/12/27 05:20:11;;;;;;;66.60;28.63;;;;;;;;;;5051291;28;20213;-71
2021/12/27 05:22:39;;;;;;;60.33;28.23;;;;;;;;;;5050637;28;20210;-71
2021/12/27 05:25:06;;;;;;;55.80;27.13;;;;;;;;;;5050885;28;20228;-71
2021/12/27 05:27:34;;;;;;;68.27;28.57;;;;;;;;;;5050462;28;20628;-71
2021/12/27 05:30:01;;;;;;;63.40;28.03;;;;;;;;;;5049594;28;20578;-71
2021/12/27 05:32:27;;;;;;;74.67;29.37;;;;;;;;;;5052153;28;20639;-79
2021/12/27 05:34:54;;;;;;;76.43;31.83;;;;;;;;;;5053346;28;20263;-79
2021/12/27 05:37:20;;;;;;;66.53;28.63;;;;;;;;;;5053681;28;20223;-79
2021/12/27 05:39:48;;;;;;;65.97;28.83;;;;;;;;;;5052913;28;20228;-79
2021/12/27 05:42:15;;;;;;;66.30;28.63;;;;;;;;;;5052174;28;20222;-79
2021/12/27 05:44:43;;;;;;;72.37;29.80;;;;;;;;;;5055267;28;20629;-79
2021/12/27 05:47:09;;;;;;;68.83;29.97;;;;;;;;;;5057164;28;20233;-79
2021/12/27 05:49:36;;;;;;;70.43;30.90;;;;;;;;;;5056439;28;20214;-79
2021/12/27 05:52:02;;;;;;;77.73;31.50;;;;;;;;;;5053909;28;20198;-79
2021/12/27 05:54:29;;;;;;;95.33;33.10;;;;;;;;;;5054991;28;20210;-79
2021/12/27 05:56:55;;;;;;;86.93;32.87;;;;;;;;;;5059037;28;20280;-79
2021/12/27 05:59:22;;;;;;;90.37;32.53;;;;;;;;;;5053364;28;20810;-79
2021/12/27 06:01:49;;;;;;;109.03;37.03;;;;;;;;;;5056178;28;20233;-79
2021/12/27 06:04:16;;;;;;;86.63;33.07;;;;;;;;;;5057521;28;20257;-79
2021/12/27 06:06:42;;;;;;;100.73;32.63;;;;;;;;;;5057516;28;20520;-79
2021/12/27 06:09:09;;;;;;;90.73;32.97;;;;;;;;;;5056165;28;20211;-79
2021/12/27 06:11:35;;;;;;;110.87;33.77;;;;;;;;;;5055557;28;20704;-79
2021/12/27 06:14:02;;;;;;;105.63;34.13;;;;;;;;;;5054445;28;20213;-79
2021/12/27 06:16:29;;;;;;;96.57;33.40;;;;;;;;;;5055507;28;20233;-79
2021/12/27 06:18:57;;;;;;;162.47;41.93;;;;;;;;;;5056260;28;20234;-79
2021/12/27 06:21:23;;;;;;;100.17;34.53;;;;;;;;;;5054121;28;20224;-78
2021/12/27 06:23:50;;;;;;;92.80;33.33;;;;;;;;;;5055681;28;20284;-78
2021/12/27 06:26:16;;;;;;;102.57;34.27;;;;;;;;;;5054560;28;20237;-79
2021/12/27 06:28:44;;;;;;;98.57;32.13;;;;;;;;;;5054202;28;20735;-78
2021/12/27 06:31:11;;;;;;;102.87;33.37;;;;;;;;;;5052634;28;20617;-78
2021/12/27 06:33:37;;;;;;;114.17;35.60;;;;;;;;;;5055526;28;20226;-78
2021/12/27 06:36:06;;;;;;;83.87;32.53;;;;;;;;;;5054342;28;20296;-79
2021/12/27 06:38:32;;;;;;;95.87;33.87;;;;;;;;;;5053636;28;20705;-78
2021/12/27 06:41:00;;;;;;;89.13;32.13;;;;;;;;;;5055205;28;20223;-79
2021/12/27 06:43:27;;;;;;;66.90;28.97;;;;;;;;;;5054360;28;20220;-78
2021/12/27 06:45:55;;;;;;;63.83;26.93;;;;;;;;;;5052979;28;20852;-78
2021/12/27 06:48:22;;;;;;;62.80;28.70;;;;;;;;;;5053295;28;20222;-78
2021/12/27 06:50:49;;;;;;;61.87;27.77;;;;;;;;;;5054892;28;20210;-78
2021/12/27 06:53:17;;;;;;;60.83;27.30;;;;;;;;;;5052831;28;20210;-78
2021/12/27 06:55:43;;;;;;;52.83;26.37;;;;;;;;;;5053598;28;20226;-78
2021/12/27 06:58:10;;;;;;;65.63;29.17;;;;;;;;;;5054068;28;20306;-78
2021/12/27 07:00:36;;;;;;;67.43;29.30;;;;;;;;;;5054429;28;20558;-78
2021/12/27 07:03:03;;;;;;;49.07;23.87;;;;;;;;;;5053564;28;20225;-78
2021/12/27 07:05:30;;;;;;;59.93;26.13;;;;;;;;;;5054571;28;20766;-79
2021/12/27 07:07:56;;;;;;;56.40;27.53;;;;;;;;;;5053256;28;20754;-78
2021/12/27 07:10:24;;;;;;;52.70;27.20;;;;;;;;;;5051922;28;20288;-78
2021/12/27 07:12:52;;;;;;;50.07;23.60;;;;;;;;;;5050559;28;20213;-78
2021/12/27 07:15:18;;;;;;;56.00;27.23;;;;;;;;;;5052298;28;20589;-78
2021/12/27 07:17:45;;;;;;;55.90;25.53;;;;;;;;;;5050037;28;20234;-78
2021/12/27 07:20:12;;;;;;;47.60;23.90;;;;;;;;;;5052618;28;20291;-78
2021/12/27 07:22:39;;;;;;;61.70;28.10;;;;;;;;;;5051346;28;20202;-79
2021/12/27 07:25:06;;;;;;;52.63;26.13;;;;;;;;;;5050855;28;20226;-78
2021/12/27 07:27:34;;;;;;;53.97;26.03;;;;;;;;;;5052600;28;20206;-78
2021/12/27 07:30:00;;;;;;;56.17;27.33;;;;;;;;;;5051092;28;20256;-78
2021/12/27 07:32:27;;;;;;;42.87;22.43;;;;;;;;;;5050287;28;20226;-78
2021/12/27 07:34:53;;;;;;;55.43;25.30;;;;;;;;;;5050900;28;20211;-79
2021/12/27 07:37:20;;;;;;;59.23;26.23;;;;;;;;;;5051264;28;20857;-78
2021/12/27 07:39:46;;;;;;;65.57;28.73;;;;;;;;;;5054308;28;20279;-79
2021/12/27 07:42:13;;;;;;;62.83;28.10;;;;;;;;;;5051041;28;20291;-78
2021/12/27 07:44:40;;;;;;;60.17;26.83;;;;;;;;;;5050969;28;20616;-78
2021/12/27 07:47:07;;;;;;;75.87;29.23;;;;;;;;;;5048800;28;20229;-78
2021/12/27 07:49:34;;;;;;;64.47;26.60;;;;;;;;;;5051366;28;20211;-79
2021/12/27 07:52:01;;;;;;;68.17;29.03;;;;;;;;;;5052184;28;20789;-78
2021/12/27 07:54:27;;;;;;;87.03;31.13;;;;;;;;;;5046303;28;20264;-78
2021/12/27 07:56:54;;;;;;;73.10;28.30;;;;;;;;;;5049361;28;20260;-78
2021/12/27 07:59:20;;;;;;;83.30;31.57;;;;;;;;;;5046728;28;20733;-78
2021/12/27 08:01:48;;;;;;;96.43;31.07;;;;;;;;;;5050168;28;20636;-78
2021/12/27 08:04:15;;;;;;;85.63;29.53;;;;;;;;;;5048714;28;20207;-78
2021/12/27 08:06:41;;;;;;;92.03;30.23;;;;;;;;;;5048643;28;20217;-78
2021/12/27 08:09:08;;;;;;;83.40;31.17;;;;;;;;;;5053759;28;20217;-79
2021/12/27 08:11:35;;;;;;;98.60;33.97;;;;;;;;;;5050091;28;20292;-79
2021/12/27 08:14:01;;;;;;;101.30;37.07;;;;;;;;;;5050116;28;20620;-79
2021/12/27 08:16:29;;;;;;;99.60;34.97;;;;;;;;;;5050548;28;20226;-79
2021/12/27 08:18:57;;;;;;;109.73;36.43;;;;;;;;;;5050915;28;20226;-78
2021/12/27 08:21:25;;;;;;;79.60;29.00;;;;;;;;;;5050201;28;20218;-79
2021/12/27 08:23:53;;;;;;;100.10;32.03;;;;;;;;;;5050505;28;20329;-79
2021/12/27 08:26:21;;;;;;;80.97;30.97;;;;;;;;;;5049646;28;20228;-79
2021/12/27 08:28:50;;;;;;;76.20;29.87;;;;;;;;;;5051690;28;20216;-79
2021/12/27 08:31:17;;;;;;;72.93;31.00;;;;;;;;;;5048502;28;20581;-79
2021/12/27 08:33:43;;;;;;;125.70;37.23;;;;;;;;;;5052193;28;20206;-79
2021/12/27 08:36:11;;;;;;;102.13;32.03;;;;;;;;;;5050115;28;20203;-79
2021/12/27 08:38:38;;;;;;;137.00;38.50;;;;;;;;;;5052705;28;21150;-79
2021/12/27 08:41:05;;;;;;;134.53;37.50;;;;;;;;;;5051111;28;20234;-79
2021/12/27 08:43:31;;;;;;;99.30;33.07;;;;;;;;;;5052668;28;20222;-79
2021/12/27 08:45:59;;;;;;;162.77;39.53;;;;;;;;;;5051483;28;20617;-79
2021/12/27 08:48:26;;;;;;;157.07;39.43;;;;;;;;;;5050516;28;20222;-79
2021/12/27 08:50:53;;;;;;;89.20;29.83;;;;;;;;;;5051071;28;20219;-79
2021/12/27 08:53:21;;;;;;;174.07;40.73;;;;;;;;;;5053080;28;20225;-80
2021/12/27 08:55:47;;;;;;;177.10;40.23;;;;;;;;;;5052946;28;20229;-80
2021/12/27 08:58:14;;;;;;;163.73;42.57;;;;;;;;;;5052506;28;20227;-80
2021/12/27 09:00:40;;;;;;;159.80;39.43;;;;;;;;;;5054150;28;20668;-80
2021/12/27 09:03:07;;;;;;;185.53;43.97;;;;;;;;;;5050604;28;20879;-80
2021/12/27 09:05:33;;;;;;;128.40;36.00;;;;;;;;;;5053270;28;20209;-80
2021/12/27 09:08:00;;;;;;;153.27;36.23;;;;;;;;;;5050185;28;20210;-80
2021/12/27 09:10:28;;;;;;;130.70;33.37;;;;;;;;;;5051028;28;20669;-80
2021/12/27 09:12:54;;;;;;;198.77;43.67;;;;;;;;;;5050578;28;20211;-81
2021/12/27 09:15:21;;;;;;;176.27;40.37;;;;;;;;;;5051956;28;20312;-81
2021/12/27 09:17:48;;;;;;;130.10;32.70;;;;;;;;;;5053573;28;20222;-81
2021/12/27 09:20:15;;;;;;;200.37;40.57;;;;;;;;;;5053406;28;20575;-81
2021/12/27 09:22:42;;;;;;;198.30;42.73;;;;;;;;;;5055380;28;20604;-81
2021/12/27 09:25:09;;;;;;;195.43;41.67;;;;;;;;;;5059590;28;20233;-80
2021/12/27 09:27:37;;;;;;;148.00;39.33;;;;;;;;;;5057244;28;20210;-80
2021/12/27 09:30:04;;;;;;;156.90;37.47;;;;;;;;;;5059737;28;20241;-80
2021/12/27 09:32:31;;;;;;;169.80;40.00;;;;;;;;;;5058122;28;20225;-80
2021/12/27 09:34:57;;;;;;;141.37;39.43;;;;;;;;;;5058167;28;20207;-81
2021/12/27 09:37:24;;;;;;;113.13;34.33;;;;;;;;;;5060141;28;20709;-80
2021/12/27 09:39:53;;;;;;;115.17;35.30;;;;;;;;;;5054235;28;20233;-80
2021/12/27 09:42:21;;;;;;;112.80;37.00;;;;;;;;;;5057899;28;20246;-80
2021/12/27 09:44:48;;;;;;;124.90;33.37;;;;;;;;;;5057497;28;20210;-80
2021/12/27 09:47:15;;;;;;;210.83;46.97;;;;;;;;;;5058708;28;20230;-80
2021/12/27 09:49:42;;;;;;;131.80;35.63;;;;;;;;;;5057516;28;20202;-80
2021/12/27 09:52:09;;;;;;;167.80;40.73;;;;;;;;;;5057293;28;20210;-79
2021/12/27 09:54:36;;;;;;;119.03;36.90;;;;;;;;;;5054001;28;20317;-78
2021/12/27 09:57:03;;;;;;;126.37;37.77;;;;;;;;;;5057126;28;20219;-79
2021/12/27 09:59:30;;;;;;;127.13;37.53;;;;;;;;;;5056827;28;20669;-79
2021/12/27 10:01:58;;;;;;;145.63;39.13;;;;;;;;;;5057832;28;20233;-79
2021/12/27 10:04:25;;;;;;;140.43;38.70;;;;;;;;;;5056318;28;20202;-79
2021/12/27 10:06:52;;;;;;;169.30;43.27;;;;;;;;;;5055090;28;20198;-79
2021/12/27 10:09:20;;;;;;;149.57;39.53;;;;;;;;;;5057799;28;20205;-79
2021/12/27 10:11:47;;;;;;;118.53;37.33;;;;;;;;;;5055922;28;20229;-79
2021/12/27 10:14:17;;;;;;;132.57;40.10;;;;;;;;;;5059121;28;20706;-79
2021/12/27 10:16:45;;;;;;;121.37;37.93;;;;;;;;;;5055641;28;20221;-79
2021/12/27 10:19:16;;;;;;;98.67;34.80;;;;;;;;;;5057218;28;20230;-79
2021/12/27 10:21:43;;;;;;;91.77;34.27;;;;;;;;;;5056660;28;20210;-79
2021/12/27 10:24:13;;;;;;;136.13;39.57;;;;;;;;;;5056866;28;20242;-79
2021/12/27 10:26:40;;;;;;;108.87;35.73;;;;;;;;;;5054486;28;20226;-79
2021/12/27 10:29:14;;;;;;;110.93;36.67;;;;;;;;;;5054381;28;20771;-79
2021/12/27 10:31:52;;;;;;;83.37;32.93;;;;;;;;;;5057536;28;20760;-79
2021/12/27 10:34:21;;;;;;;99.20;35.37;;;;;;;;;;5054717;28;20214;-79
2021/12/27 10:37:14;;;;;;;115.70;35.67;;;;;;;;;;5055849;28;20206;-79
2021/12/27 10:39:59;;;;;;;93.40;32.13;;;;;;;;;;5056490;28;20250;-79
2021/12/27 10:42:28;;;;;;;87.80;34.27;;;;;;;;;;5054999;28;20570;-79
2021/12/27 10:44:57;;;;;;;77.57;32.47;;;;;;;;;;5052500;28;20210;-79
2021/12/27 10:47:30;;;;;;;72.20;30.00;;;;;;;;;;5055728;28;20227;-79
2021/12/27 10:50:03;;;;;;;62.00;30.10;;;;;;;;;;5056047;28;20665;-79
2021/12/27 10:52:45;;;;;;;82.83;31.77;;;;;;;;;;5055932;28;20207;-79
2021/12/27 10:55:12;;;;;;;83.60;31.60;;;;;;;;;;5056678;28;20339;-79
2021/12/27 10:57:39;;;;;;;75.90;32.43;;;;;;;;;;5054437;28;20283;-79
2021/12/27 11:00:29;;;;;;;66.93;31.00;;;;;;;;;;5055735;28;20222;-79
2021/12/27 11:02:58;;;;;;;59.90;30.67;;;;;;;;;;5054571;28;20312;-79
2021/12/27 11:05:27;;;;;;;55.50;29.47;;;;;;;;;;5057107;28;20282;-80
2021/12/27 11:07:59;;;;;;;58.50;30.90;;;;;;;;;;5056938;28;20194;-79
2021/12/27 11:10:26;;;;;;;61.13;31.47;;;;;;;;;;5054922;28;20242;-78
2021/12/27 11:12:53;;;;;;;57.10;30.30;;;;;;;;;;5057917;28;20210;-79
2021/12/27 11:15:20;;;;;;;51.50;29.53;;;;;;;;;;5052880;28;20211;-79
2021/12/27 11:17:46;;;;;;;62.47;32.10;;;;;;;;;;5057192;28;20233;-79
2021/12/27 11:20:14;;;;;;;55.67;31.67;;;;;;;;;;5055606;28;20281;-79
2021/12/27 11:22:45;;;;;;;53.17;30.30;;;;;;;;;;5054261;28;20211;-79
2021/12/27 11:25:26;;;;;;;57.07;30.50;;;;;;;;;;5051808;28;20229;-79
2021/12/27 11:27:53;;;;;;;55.13;29.50;;;;;;;;;;5055786;28;20730;-79
2021/12/27 11:30:23;;;;;;;57.10;27.87;;;;;;;;;;5054729;28;20210;-79
2021/12/27 11:33:09;;;;;;;47.83;29.10;;;;;;;;;;5056047;28;20657;-79
2021/12/27 11:35:39;;;;;;;47.80;28.93;;;;;;;;;;5059116;28;20206;-78
2021/12/27 11:38:07;;;;;;;45.90;28.27;;;;;;;;;;5054977;28;20332;-79
2021/12/27 11:40:43;;;;;;;52.23;28.67;;;;;;;;;;5056005;28;20288;-79
2021/12/27 11:43:10;;;;;;;46.90;27.37;;;;;;;;;;5053553;28;20205;-79
2021/12/27 11:45:42;;;;;;;48.60;28.07;;;;;;;;;;5057017;28;20202;-79
2021/12/27 11:48:10;;;;;;;39.83;25.30;;;;;;;;;;5054498;28;20568;-79
2021/12/27 11:51:09;;;;;;;38.50;25.63;;;;;;;;;;5057033;28;21144;-78
2021/12/27 11:53:44;;;;;;;36.53;25.10;;;;;;;;;;5059987;28;21164;-79
2021/12/27 11:56:15;;;;;;;38.93;26.33;;;;;;;;;;5055872;28;20249;-79
2021/12/27 11:58:45;;;;;;;39.13;25.57;;;;;;;;;;5058244;28;20582;-79
2021/12/27 12:01:36;;;;;;;37.77;25.43;;;;;;;;;;5058716;28;20215;-79
2021/12/27 12:04:02;;;;;;;35.83;24.70;;;;;;;;;;5057206;28;20280;-79
2021/12/27 12:06:43;;;;;;;35.27;24.77;;;;;;;;;;5061837;28;20608;-79
2021/12/27 12:09:15;;;;;;;33.23;24.57;;;;;;;;;;5065639;28;20644;-79
2021/12/27 12:11:42;;;;;;;37.50;25.10;;;;;;;;;;5065206;28;20258;-79
2021/12/27 12:14:29;;;;;;;32.27;23.93;;;;;;;;;;5062376;28;20264;-79
2021/12/27 12:16:57;;;;;;;31.67;22.60;;;;;;;;;;5062516;28;20321;-78
2021/12/27 12:19:42;;;;;;;33.70;23.70;;;;;;;;;;5064147;28;20235;-79
2021/12/27 12:22:34;;;;;;;30.43;23.90;;;;;;;;;;5061992;28;20217;-78
2021/12/27 12:25:12;;;;;;;27.77;22.13;;;;;;;;;;5060851;28;20242;-78
2021/12/27 12:27:51;;;;;;;28.37;22.10;;;;;;;;;;5061505;28;20291;-78
2021/12/27 12:30:17;;;;;;;27.07;21.13;;;;;;;;;;5065605;28;20220;-78
2021/12/27 12:32:57;;;;;;;32.67;22.50;;;;;;;;;;5062654;28;20225;-78
2021/12/27 12:35:39;;;;;;;31.30;23.20;;;;;;;;;;5063764;28;20215;-78
2021/12/27 12:38:15;;;;;;;31.40;23.30;;;;;;;;;;5068370;28;20198;-78
2021/12/27 12:40:45;;;;;;;32.60;23.60;;;;;;;;;;5065294;28;20230;-78
2021/12/27 12:43:31;;;;;;;32.50;22.57;;;;;;;;;;5065404;28;20248;-78
2021/12/27 12:45:57;;;;;;;30.53;23.70;;;;;;;;;;5052954;28;20260;-78
2021/12/27 12:48:27;;;;;;;33.20;23.60;;;;;;;;;;5051740;28;20280;-78
2021/12/27 12:50:54;;;;;;;30.30;23.40;;;;;;;;;;5053271;28;20815;-78
2021/12/27 12:53:30;;;;;;;30.90;22.73;;;;;;;;;;5054682;28;20234;-78
2021/12/27 12:56:02;;;;;;;31.00;22.90;;;;;;;;;;5057361;28;20249;-78
2021/12/27 12:58:36;;;;;;;28.17;23.40;;;;;;;;;;5058299;28;20211;-78
2021/12/27 13:01:05;;;;;;;29.17;23.13;;;;;;;;;;5053791;28;20276;-78
2021/12/27 13:03:32;;;;;;;26.40;22.53;;;;;;;;;;5058007;28;20237;-78
2021/12/27 13:05:58;;;;;;;28.53;22.60;;;;;;;;;;5056928;28;20764;-80
2021/12/27 13:08:25;;;;;;;29.43;23.63;;;;;;;;;;5057654;28;20298;-78
2021/12/27 13:10:55;;;;;;;30.27;22.93;;;;;;;;;;5055090;28;20683;-78
2021/12/27 13:13:23;;;;;;;31.53;23.77;;;;;;;;;;5056194;28;20209;-78
2021/12/27 13:15:51;;;;;;;33.67;26.93;;;;;;;;;;5056160;28;20223;-78
2021/12/27 13:18:20;;;;;;;33.57;26.33;;;;;;;;;;5057773;28;20684;-78
2021/12/27 13:20:49;;;;;;;32.43;25.47;;;;;;;;;;5057965;28;20247;-78
2021/12/27 13:23:18;;;;;;;31.80;26.20;;;;;;;;;;5057691;28;20379;-79
2021/12/27 13:25:47;;;;;;;30.13;23.47;;;;;;;;;;5056791;28;20230;-80
2021/12/27 13:28:17;;;;;;;30.10;24.37;;;;;;;;;;5053847;28;20245;-79
2021/12/27 13:31:00;;;;;;;27.87;22.50;;;;;;;;;;5057423;28;20310;-78
2021/12/27 13:33:29;;;;;;;30.43;24.33;;;;;;;;;;5055763;28;20230;-78
2021/12/27 13:35:57;;;;;;;30.60;22.80;;;;;;;;;;5056572;28;20272;-79
2021/12/27 13:38:26;;;;;;;26.43;21.37;;;;;;;;;;5057432;28;20210;-79
2021/12/27 13:40:55;;;;;;;26.07;20.80;;;;;;;;;;5054578;28;20227;-78
2021/12/27 13:43:22;;;;;;;24.03;20.23;;;;;;;;;;5056031;28;20264;-78
2021/12/27 13:45:49;;;;;;;24.20;21.27;;;;;;;;;;5055854;28;20576;-79
2021/12/27 13:48:28;;;;;;;24.83;17.93;;;;;;;;;;5054937;28;20288;-78
2021/12/27 13:50:56;;;;;;;22.67;18.87;;;;;;;;;;5056171;28;20222;-79
2021/12/27 13:53:22;;;;;;;23.87;18.90;;;;;;;;;;5055822;28;20203;-78
2021/12/27 13:55:49;;;;;;;18.47;16.57;;;;;;;;;;5056770;28;20705;-80
2021/12/27 13:58:18;;;;;;;21.63;18.07;;;;;;;;;;5056111;28;20211;-78
2021/12/27 14:00:47;;;;;;;19.97;17.17;;;;;;;;;;5056059;28;20231;-78
2021/12/27 14:03:30;;;;;;;18.73;16.10;;;;;;;;;;5056495;28;20231;-78
2021/12/27 14:05:58;;;;;;;18.50;15.90;;;;;;;;;;5052989;28;20219;-80
2021/12/27 14:08:27;;;;;;;19.03;15.80;;;;;;;;;;5054755;28;21070;-78
2021/12/27 14:11:02;;;;;;;19.63;15.90;;;;;;;;;;5055050;28;20701;-78
2021/12/27 14:13:48;;;;;;;20.57;15.87;;;;;;;;;;5055762;28;20214;-78
2021/12/27 14:16:22;;;;;;;20.30;15.73;;;;;;;;;;5057473;28;20284;-78
2021/12/27 14:19:10;;;;;;;17.77;15.87;;;;;;;;;;5054628;28;20218;-78
2021/12/27 14:22:19;;;;;;;21.90;16.30;;;;;;;;;;5055607;28;20250;-78
2021/12/27 14:24:52;;;;;;;18.83;16.83;;;;;;;;;;5014674;28;20238;-78
2021/12/27 14:27:41;;;;;;;20.10;16.77;;;;;;;;;;5057014;28;20220;-78
2021/12/27 14:30:24;;;;;;;16.53;14.77;;;;;;;;;;5053618;28;20247;-78